sensor_id;sensor_type;location;lat;lon;timestamp;P1;durP1;ratioP1;P2;durP2;ratioP2
35518;SDS011;21627;48.216;16.482;2024-01-16T00:02:02;4.83;;;3.87;;
35518;SDS011;21627;48.216;16.482;2024-01-16T00:04:29;5.07;;;3.47;;
35518;SDS011;21627;48.216;16.482;2024-01-16T00:06:57;7.03;;;3.43;;
35518;SDS011;21627;48.216;16.482;2024-01-16T00:09:24;5.33;;;3.83;;
35518;SDS011;21627;48.216;16.482;2024-01-16T00:11:51;6.80;;;3.73;;
35518;SDS011;21627;48.216;16.482;2024-01-16T00:14:18;5.33;;;3.97;;
35518;SDS011;21627;48.216;16.482;2024-01-16T00:16:46;4.77;;;3.80;;
35518;SDS011;21627;48.216;16.482;2024-01-16T00:19:16;8.27;;;3.73;;
35518;SDS011;21627;48.216;16.482;2024-01-16T00:21:44;5.43;;;4.10;;
35518;SDS011;21627;48.216;16.482;2024-01-16T00:24:14;5.43;;;4.30;;
35518;SDS011;21627;48.216;16.482;2024-01-16T00:26:42;9.30;;;4.17;;
35518;SDS011;21627;48.216;16.482;2024-01-16T00:29:10;5.47;;;4.23;;
35518;SDS011;21627;48.216;16.482;2024-01-16T00:31:39;7.87;;;4.63;;
35518;SDS011;21627;48.216;16.482;2024-01-16T00:34:06;8.27;;;4.50;;
35518;SDS011;21627;48.216;16.482;2024-01-16T00:36:34;6.43;;;4.67;;
35518;SDS011;21627;48.216;16.482;2024-01-16T00:39:01;8.87;;;5.23;;
35518;SDS011;21627;48.216;16.482;2024-01-16T00:41:29;6.83;;;4.07;;
35518;SDS011;21627;48.216;16.482;2024-01-16T00:43:56;8.63;;;4.57;;
35518;SDS011;21627;48.216;16.482;2024-01-16T00:46:23;5.77;;;4.20;;
35518;SDS011;21627;48.216;16.482;2024-01-16T00:48:51;8.57;;;4.30;;
35518;SDS011;21627;48.216;16.482;2024-01-16T00:51:18;7.83;;;4.80;;
35518;SDS011;21627;48.216;16.482;2024-01-16T00:53:45;5.20;;;4.07;;
35518;SDS011;21627;48.216;16.482;2024-01-16T00:56:12;7.43;;;3.90;;
35518;SDS011;21627;48.216;16.482;2024-01-16T00:58:40;5.73;;;4.20;;
35518;SDS011;21627;48.216;16.482;2024-01-16T01:01:07;5.53;;;3.67;;
35518;SDS011;21627;48.216;16.482;2024-01-16T01:03:34;8.27;;;4.00;;
35518;SDS011;21627;48.216;16.482;2024-01-16T01:06:02;6.30;;;4.10;;
35518;SDS011;21627;48.216;16.482;2024-01-16T01:08:29;6.03;;;4.00;;
35518;SDS011;21627;48.216;16.482;2024-01-16T01:10:56;7.83;;;4.30;;
35518;SDS011;21627;48.216;16.482;2024-01-16T01:13:24;9.57;;;4.30;;
35518;SDS011;21627;48.216;16.482;2024-01-16T01:15:51;6.27;;;4.17;;
35518;SDS011;21627;48.216;16.482;2024-01-16T01:18:19;8.43;;;4.33;;
35518;SDS011;21627;48.216;16.482;2024-01-16T01:51:04;7.70;;;4.47;;
35518;SDS011;21627;48.216;16.482;2024-01-16T01:53:31;6.67;;;3.90;;
35518;SDS011;21627;48.216;16.482;2024-01-16T01:56:03;9.43;;;4.70;;
35518;SDS011;21627;48.216;16.482;2024-01-16T01:58:33;7.87;;;4.67;;
35518;SDS011;21627;48.216;16.482;2024-01-16T02:01:02;5.20;;;4.10;;
35518;SDS011;21627;48.216;16.482;2024-01-16T02:03:35;8.03;;;5.17;;
35518;SDS011;21627;48.216;16.482;2024-01-16T02:06:11;8.23;;;4.40;;
35518;SDS011;21627;48.216;16.482;2024-01-16T02:08:39;7.17;;;4.47;;
35518;SDS011;21627;48.216;16.482;2024-01-16T02:11:07;6.37;;;4.23;;
35518;SDS011;21627;48.216;16.482;2024-01-16T02:13:36;7.30;;;4.00;;
35518;SDS011;21627;48.216;16.482;2024-01-16T02:16:03;5.97;;;4.23;;
35518;SDS011;21627;48.216;16.482;2024-01-16T02:18:32;8.57;;;4.10;;
35518;SDS011;21627;48.216;16.482;2024-01-16T02:21:00;6.93;;;4.40;;
35518;SDS011;21627;48.216;16.482;2024-01-16T02:23:29;6.23;;;4.33;;
35518;SDS011;21627;48.216;16.482;2024-01-16T02:25:58;9.10;;;4.30;;
35518;SDS011;21627;48.216;16.482;2024-01-16T02:28:25;5.87;;;4.07;;
35518;SDS011;21627;48.216;16.482;2024-01-16T02:30:52;9.47;;;4.33;;
35518;SDS011;21627;48.216;16.482;2024-01-16T02:33:19;6.53;;;4.30;;
35518;SDS011;21627;48.216;16.482;2024-01-16T02:35:46;6.33;;;4.27;;
35518;SDS011;21627;48.216;16.482;2024-01-16T02:38:14;6.23;;;4.07;;
35518;SDS011;21627;48.216;16.482;2024-01-16T02:40:41;7.57;;;4.73;;
35518;SDS011;21627;48.216;16.482;2024-01-16T02:43:08;5.30;;;3.93;;
35518;SDS011;21627;48.216;16.482;2024-01-16T02:45:35;9.10;;;4.40;;
35518;SDS011;21627;48.216;16.482;2024-01-16T02:48:02;6.53;;;3.80;;
35518;SDS011;21627;48.216;16.482;2024-01-16T02:50:30;10.73;;;4.90;;
35518;SDS011;21627;48.216;16.482;2024-01-16T02:52:57;7.63;;;4.47;;
35518;SDS011;21627;48.216;16.482;2024-01-16T02:55:24;5.60;;;4.30;;
35518;SDS011;21627;48.216;16.482;2024-01-16T02:57:52;5.87;;;4.37;;
35518;SDS011;21627;48.216;16.482;2024-01-16T03:00:19;7.97;;;4.40;;
35518;SDS011;21627;48.216;16.482;2024-01-16T03:02:46;9.60;;;4.37;;
35518;SDS011;21627;48.216;16.482;2024-01-16T03:05:13;7.20;;;4.20;;
35518;SDS011;21627;48.216;16.482;2024-01-16T03:07:41;6.53;;;4.37;;
35518;SDS011;21627;48.216;16.482;2024-01-16T03:10:08;6.17;;;4.47;;
35518;SDS011;21627;48.216;16.482;2024-01-16T03:12:35;7.30;;;4.37;;
35518;SDS011;21627;48.216;16.482;2024-01-16T03:15:02;8.63;;;4.07;;
35518;SDS011;21627;48.216;16.482;2024-01-16T03:17:30;7.10;;;4.50;;
35518;SDS011;21627;48.216;16.482;2024-01-16T03:19:57;6.73;;;4.53;;
35518;SDS011;21627;48.216;16.482;2024-01-16T03:22:24;10.70;;;4.73;;
35518;SDS011;21627;48.216;16.482;2024-01-16T03:24:51;6.50;;;4.00;;
35518;SDS011;21627;48.216;16.482;2024-01-16T03:27:21;7.50;;;4.53;;
35518;SDS011;21627;48.216;16.482;2024-01-16T03:29:48;7.57;;;4.30;;
35518;SDS011;21627;48.216;16.482;2024-01-16T03:32:16;6.97;;;5.07;;
35518;SDS011;21627;48.216;16.482;2024-01-16T03:34:43;9.23;;;4.27;;
35518;SDS011;21627;48.216;16.482;2024-01-16T03:37:10;7.63;;;4.40;;
35518;SDS011;21627;48.216;16.482;2024-01-16T03:39:37;6.07;;;4.10;;
35518;SDS011;21627;48.216;16.482;2024-01-16T03:42:04;6.97;;;4.53;;
35518;SDS011;21627;48.216;16.482;2024-01-16T03:44:31;9.33;;;4.53;;
35518;SDS011;21627;48.216;16.482;2024-01-16T03:46:58;8.00;;;4.50;;
35518;SDS011;21627;48.216;16.482;2024-01-16T03:49:25;6.07;;;4.33;;
35518;SDS011;21627;48.216;16.482;2024-01-16T03:51:52;7.50;;;4.43;;
35518;SDS011;21627;48.216;16.482;2024-01-16T03:54:19;10.20;;;4.30;;
35518;SDS011;21627;48.216;16.482;2024-01-16T03:56:47;10.07;;;4.67;;
35518;SDS011;21627;48.216;16.482;2024-01-16T03:59:14;7.97;;;4.90;;
35518;SDS011;21627;48.216;16.482;2024-01-16T04:01:41;7.07;;;4.47;;
35518;SDS011;21627;48.216;16.482;2024-01-16T04:04:10;6.70;;;4.63;;
35518;SDS011;21627;48.216;16.482;2024-01-16T04:06:37;5.00;;;3.70;;
35518;SDS011;21627;48.216;16.482;2024-01-16T04:09:05;7.57;;;4.87;;
35518;SDS011;21627;48.216;16.482;2024-01-16T04:11:32;7.97;;;4.37;;
35518;SDS011;21627;48.216;16.482;2024-01-16T04:13:59;9.67;;;4.10;;
35518;SDS011;21627;48.216;16.482;2024-01-16T04:16:26;7.47;;;3.80;;
35518;SDS011;21627;48.216;16.482;2024-01-16T04:18:54;8.53;;;4.60;;
35518;SDS011;21627;48.216;16.482;2024-01-16T04:21:21;6.93;;;4.07;;
35518;SDS011;21627;48.216;16.482;2024-01-16T04:23:48;6.73;;;3.90;;
35518;SDS011;21627;48.216;16.482;2024-01-16T04:26:15;8.33;;;4.27;;
35518;SDS011;21627;48.216;16.482;2024-01-16T04:28:43;6.00;;;4.00;;
35518;SDS011;21627;48.216;16.482;2024-01-16T04:31:10;6.57;;;4.43;;
35518;SDS011;21627;48.216;16.482;2024-01-16T04:33:38;6.83;;;4.10;;
35518;SDS011;21627;48.216;16.482;2024-01-16T04:36:07;6.27;;;4.10;;
35518;SDS011;21627;48.216;16.482;2024-01-16T04:38:34;6.03;;;3.70;;
35518;SDS011;21627;48.216;16.482;2024-01-16T04:41:04;6.87;;;3.90;;
35518;SDS011;21627;48.216;16.482;2024-01-16T04:43:31;6.13;;;3.50;;
35518;SDS011;21627;48.216;16.482;2024-01-16T04:45:58;7.90;;;3.57;;
35518;SDS011;21627;48.216;16.482;2024-01-16T04:48:29;5.90;;;3.77;;
35518;SDS011;21627;48.216;16.482;2024-01-16T04:50:56;10.53;;;3.80;;
35518;SDS011;21627;48.216;16.482;2024-01-16T04:53:23;7.43;;;3.50;;
35518;SDS011;21627;48.216;16.482;2024-01-16T04:55:51;4.40;;;3.27;;
35518;SDS011;21627;48.216;16.482;2024-01-16T04:58:19;4.23;;;3.10;;
35518;SDS011;21627;48.216;16.482;2024-01-16T05:00:46;6.37;;;3.33;;
35518;SDS011;21627;48.216;16.482;2024-01-16T05:03:13;6.93;;;3.50;;
35518;SDS011;21627;48.216;16.482;2024-01-16T05:05:40;7.63;;;3.63;;
35518;SDS011;21627;48.216;16.482;2024-01-16T05:08:08;9.13;;;3.43;;
35518;SDS011;21627;48.216;16.482;2024-01-16T05:10:35;5.87;;;3.30;;
35518;SDS011;21627;48.216;16.482;2024-01-16T05:13:02;4.53;;;3.30;;
35518;SDS011;21627;48.216;16.482;2024-01-16T05:15:29;7.77;;;3.90;;
35518;SDS011;21627;48.216;16.482;2024-01-16T05:17:56;8.17;;;4.13;;
35518;SDS011;21627;48.216;16.482;2024-01-16T05:20:24;5.80;;;3.20;;
35518;SDS011;21627;48.216;16.482;2024-01-16T05:22:51;5.03;;;3.20;;
35518;SDS011;21627;48.216;16.482;2024-01-16T05:25:18;6.50;;;3.43;;
35518;SDS011;21627;48.216;16.482;2024-01-16T05:27:46;6.43;;;3.10;;
35518;SDS011;21627;48.216;16.482;2024-01-16T05:30:13;6.93;;;3.40;;
35518;SDS011;21627;48.216;16.482;2024-01-16T05:32:40;5.90;;;3.13;;
35518;SDS011;21627;48.216;16.482;2024-01-16T05:35:08;4.47;;;2.87;;
35518;SDS011;21627;48.216;16.482;2024-01-16T05:37:38;3.60;;;2.70;;
35518;SDS011;21627;48.216;16.482;2024-01-16T05:40:06;4.27;;;3.10;;
35518;SDS011;21627;48.216;16.482;2024-01-16T05:42:34;6.03;;;2.93;;
35518;SDS011;21627;48.216;16.482;2024-01-16T05:45:02;5.43;;;3.00;;
35518;SDS011;21627;48.216;16.482;2024-01-16T05:47:29;6.80;;;2.80;;
35518;SDS011;21627;48.216;16.482;2024-01-16T05:49:57;5.53;;;2.70;;
35518;SDS011;21627;48.216;16.482;2024-01-16T05:52:24;6.57;;;2.60;;
35518;SDS011;21627;48.216;16.482;2024-01-16T05:54:51;8.47;;;2.87;;
35518;SDS011;21627;48.216;16.482;2024-01-16T05:57:18;4.43;;;2.50;;
35518;SDS011;21627;48.216;16.482;2024-01-16T05:59:45;5.20;;;2.33;;
35518;SDS011;21627;48.216;16.482;2024-01-16T06:02:12;3.60;;;2.60;;
35518;SDS011;21627;48.216;16.482;2024-01-16T06:04:40;3.30;;;2.40;;
35518;SDS011;21627;48.216;16.482;2024-01-16T06:07:07;3.70;;;2.50;;
35518;SDS011;21627;48.216;16.482;2024-01-16T06:09:38;5.73;;;3.70;;
35518;SDS011;21627;48.216;16.482;2024-01-16T06:12:08;9.03;;;2.77;;
35518;SDS011;21627;48.216;16.482;2024-01-16T06:14:37;4.63;;;2.50;;
35518;SDS011;21627;48.216;16.482;2024-01-16T06:17:04;7.57;;;2.70;;
35518;SDS011;21627;48.216;16.482;2024-01-16T06:19:32;5.80;;;2.77;;
35518;SDS011;21627;48.216;16.482;2024-01-16T06:22:00;4.07;;;2.47;;
35518;SDS011;21627;48.216;16.482;2024-01-16T06:24:27;7.47;;;2.47;;
35518;SDS011;21627;48.216;16.482;2024-01-16T06:26:55;3.37;;;2.20;;
35518;SDS011;21627;48.216;16.482;2024-01-16T06:29:22;7.27;;;2.57;;
35518;SDS011;21627;48.216;16.482;2024-01-16T06:32:00;4.53;;;2.53;;
35518;SDS011;21627;48.216;16.482;2024-01-16T06:34:27;9.73;;;3.33;;
35518;SDS011;21627;48.216;16.482;2024-01-16T06:36:55;6.00;;;2.47;;
35518;SDS011;21627;48.216;16.482;2024-01-16T06:39:22;8.17;;;2.53;;
35518;SDS011;21627;48.216;16.482;2024-01-16T06:41:49;6.43;;;2.50;;
35518;SDS011;21627;48.216;16.482;2024-01-16T06:44:16;5.97;;;2.30;;
35518;SDS011;21627;48.216;16.482;2024-01-16T06:46:45;7.03;;;2.50;;
35518;SDS011;21627;48.216;16.482;2024-01-16T06:49:12;14.20;;;2.53;;
35518;SDS011;21627;48.216;16.482;2024-01-16T06:51:40;3.73;;;2.60;;
35518;SDS011;21627;48.216;16.482;2024-01-16T06:54:07;3.73;;;2.40;;
35518;SDS011;21627;48.216;16.482;2024-01-16T06:56:34;3.90;;;2.40;;
35518;SDS011;21627;48.216;16.482;2024-01-16T06:59:01;3.67;;;2.33;;
35518;SDS011;21627;48.216;16.482;2024-01-16T07:01:28;3.97;;;2.13;;
35518;SDS011;21627;48.216;16.482;2024-01-16T07:03:55;8.27;;;2.43;;
35518;SDS011;21627;48.216;16.482;2024-01-16T07:06:22;2.70;;;2.27;;
35518;SDS011;21627;48.216;16.482;2024-01-16T07:08:50;8.70;;;2.33;;
35518;SDS011;21627;48.216;16.482;2024-01-16T07:11:17;7.00;;;2.27;;
35518;SDS011;21627;48.216;16.482;2024-01-16T07:13:45;2.37;;;2.10;;
35518;SDS011;21627;48.216;16.482;2024-01-16T07:16:12;5.80;;;2.27;;
35518;SDS011;21627;48.216;16.482;2024-01-16T07:18:40;4.23;;;2.23;;
35518;SDS011;21627;48.216;16.482;2024-01-16T07:21:18;4.00;;;2.30;;
35518;SDS011;21627;48.216;16.482;2024-01-16T07:23:47;3.35;;;2.00;;
35518;SDS011;21627;48.216;16.482;2024-01-16T07:26:15;4.80;;;2.40;;
35518;SDS011;21627;48.216;16.482;2024-01-16T07:28:43;7.07;;;2.33;;
35518;SDS011;21627;48.216;16.482;2024-01-16T07:31:10;5.17;;;2.50;;
35518;SDS011;21627;48.216;16.482;2024-01-16T07:33:38;5.23;;;2.53;;
35518;SDS011;21627;48.216;16.482;2024-01-16T07:36:07;5.60;;;2.10;;
35518;SDS011;21627;48.216;16.482;2024-01-16T07:38:36;6.70;;;2.37;;
35518;SDS011;21627;48.216;16.482;2024-01-16T07:41:04;8.10;;;2.57;;
35518;SDS011;21627;48.216;16.482;2024-01-16T07:43:32;3.90;;;2.47;;
35518;SDS011;21627;48.216;16.482;2024-01-16T07:45:59;3.20;;;2.10;;
35518;SDS011;21627;48.216;16.482;2024-01-16T07:48:26;2.83;;;2.03;;
35518;SDS011;21627;48.216;16.482;2024-01-16T07:50:53;6.53;;;2.30;;
35518;SDS011;21627;48.216;16.482;2024-01-16T07:53:21;5.00;;;2.20;;
35518;SDS011;21627;48.216;16.482;2024-01-16T07:55:48;5.10;;;2.53;;
35518;SDS011;21627;48.216;16.482;2024-01-16T07:58:15;5.93;;;2.23;;
35518;SDS011;21627;48.216;16.482;2024-01-16T08:00:42;2.40;;;1.90;;
35518;SDS011;21627;48.216;16.482;2024-01-16T08:03:09;3.90;;;2.40;;
35518;SDS011;21627;48.216;16.482;2024-01-16T08:05:41;6.07;;;2.60;;
35518;SDS011;21627;48.216;16.482;2024-01-16T08:08:08;7.13;;;2.10;;
35518;SDS011;21627;48.216;16.482;2024-01-16T08:10:36;3.67;;;2.60;;
35518;SDS011;21627;48.216;16.482;2024-01-16T08:13:03;4.20;;;2.20;;
35518;SDS011;21627;48.216;16.482;2024-01-16T08:15:30;5.03;;;2.20;;
35518;SDS011;21627;48.216;16.482;2024-01-16T08:17:58;5.53;;;2.20;;
35518;SDS011;21627;48.216;16.482;2024-01-16T08:20:25;4.60;;;2.30;;
35518;SDS011;21627;48.216;16.482;2024-01-16T08:22:52;3.60;;;2.43;;
35518;SDS011;21627;48.216;16.482;2024-01-16T08:25:20;4.00;;;2.20;;
35518;SDS011;21627;48.216;16.482;2024-01-16T08:27:47;6.17;;;2.50;;
35518;SDS011;21627;48.216;16.482;2024-01-16T08:30:14;4.97;;;2.27;;
35518;SDS011;21627;48.216;16.482;2024-01-16T08:32:41;4.37;;;2.07;;
35518;SDS011;21627;48.216;16.482;2024-01-16T08:35:09;3.30;;;2.10;;
35518;SDS011;21627;48.216;16.482;2024-01-16T08:37:36;2.77;;;1.87;;
35518;SDS011;21627;48.216;16.482;2024-01-16T08:40:03;3.40;;;2.30;;
35518;SDS011;21627;48.216;16.482;2024-01-16T08:42:32;4.90;;;2.23;;
35518;SDS011;21627;48.216;16.482;2024-01-16T08:44:59;5.33;;;2.03;;
35518;SDS011;21627;48.216;16.482;2024-01-16T08:47:26;4.00;;;2.13;;
35518;SDS011;21627;48.216;16.482;2024-01-16T08:49:53;2.70;;;1.90;;
35518;SDS011;21627;48.216;16.482;2024-01-16T08:52:20;5.00;;;1.83;;
35518;SDS011;21627;48.216;16.482;2024-01-16T08:54:47;4.60;;;2.10;;
35518;SDS011;21627;48.216;16.482;2024-01-16T08:57:15;5.30;;;2.10;;
35518;SDS011;21627;48.216;16.482;2024-01-16T08:59:43;2.50;;;1.80;;
35518;SDS011;21627;48.216;16.482;2024-01-16T09:02:11;2.97;;;1.80;;
35518;SDS011;21627;48.216;16.482;2024-01-16T09:04:38;6.53;;;1.80;;
35518;SDS011;21627;48.216;16.482;2024-01-16T09:07:06;2.10;;;1.60;;
35518;SDS011;21627;48.216;16.482;2024-01-16T09:09:33;5.60;;;1.70;;
35518;SDS011;21627;48.216;16.482;2024-01-16T09:12:01;4.97;;;1.80;;
35518;SDS011;21627;48.216;16.482;2024-01-16T09:14:29;6.30;;;2.07;;
35518;SDS011;21627;48.216;16.482;2024-01-16T09:16:57;3.03;;;2.00;;
35518;SDS011;21627;48.216;16.482;2024-01-16T09:19:24;2.30;;;1.40;;
35518;SDS011;21627;48.216;16.482;2024-01-16T09:21:53;9.03;;;1.83;;
35518;SDS011;21627;48.216;16.482;2024-01-16T09:24:20;2.77;;;1.80;;
35518;SDS011;21627;48.216;16.482;2024-01-16T09:26:47;6.13;;;2.60;;
35518;SDS011;21627;48.216;16.482;2024-01-16T09:29:14;2.17;;;1.57;;
35518;SDS011;21627;48.216;16.482;2024-01-16T09:31:42;5.20;;;2.73;;
35518;SDS011;21627;48.216;16.482;2024-01-16T09:34:09;3.83;;;1.43;;
35518;SDS011;21627;48.216;16.482;2024-01-16T09:36:39;8.83;;;1.97;;
35518;SDS011;21627;48.216;16.482;2024-01-16T09:39:07;7.00;;;1.87;;
35518;SDS011;21627;48.216;16.482;2024-01-16T09:41:35;1.77;;;1.37;;
35518;SDS011;21627;48.216;16.482;2024-01-16T09:44:02;3.87;;;1.57;;
35518;SDS011;21627;48.216;16.482;2024-01-16T09:46:31;3.77;;;1.60;;
35518;SDS011;21627;48.216;16.482;2024-01-16T09:48:59;9.30;;;2.03;;
35518;SDS011;21627;48.216;16.482;2024-01-16T09:51:29;10.37;;;2.30;;
35518;SDS011;21627;48.216;16.482;2024-01-16T09:53:56;5.00;;;2.00;;
35518;SDS011;21627;48.216;16.482;2024-01-16T09:56:23;3.57;;;1.67;;
35518;SDS011;21627;48.216;16.482;2024-01-16T09:58:54;5.00;;;1.67;;
35518;SDS011;21627;48.216;16.482;2024-01-16T10:01:26;2.90;;;1.57;;
35518;SDS011;21627;48.216;16.482;2024-01-16T10:03:54;2.23;;;1.50;;
35518;SDS011;21627;48.216;16.482;2024-01-16T10:06:22;10.23;;;2.00;;
35518;SDS011;21627;48.216;16.482;2024-01-16T10:08:50;3.80;;;2.10;;
35518;SDS011;21627;48.216;16.482;2024-01-16T10:11:17;10.50;;;1.97;;
35518;SDS011;21627;48.216;16.482;2024-01-16T10:13:45;6.60;;;2.20;;
35518;SDS011;21627;48.216;16.482;2024-01-16T10:16:12;2.23;;;1.70;;
35518;SDS011;21627;48.216;16.482;2024-01-16T10:18:39;4.50;;;1.90;;
35518;SDS011;21627;48.216;16.482;2024-01-16T10:21:20;6.43;;;2.03;;
35518;SDS011;21627;48.216;16.482;2024-01-16T10:23:49;8.13;;;1.80;;
35518;SDS011;21627;48.216;16.482;2024-01-16T10:26:16;9.17;;;1.80;;
35518;SDS011;21627;48.216;16.482;2024-01-16T10:28:45;3.40;;;1.60;;
35518;SDS011;21627;48.216;16.482;2024-01-16T10:31:13;3.70;;;2.10;;
35518;SDS011;21627;48.216;16.482;2024-01-16T10:33:43;5.17;;;1.80;;
35518;SDS011;21627;48.216;16.482;2024-01-16T10:36:12;5.97;;;2.13;;
35518;SDS011;21627;48.216;16.482;2024-01-16T10:38:43;4.80;;;1.92;;
35518;SDS011;21627;48.216;16.482;2024-01-16T10:41:12;4.37;;;2.50;;
35518;SDS011;21627;48.216;16.482;2024-01-16T10:43:40;2.28;;;1.45;;
35518;SDS011;21627;48.216;16.482;2024-01-16T10:48:39;5.45;;;1.42;;
35518;SDS011;21627;48.216;16.482;2024-01-16T10:51:13;3.70;;;1.50;;
35518;SDS011;21627;48.216;16.482;2024-01-16T10:53:42;16.42;;;1.70;;
35518;SDS011;21627;48.216;16.482;2024-01-16T10:56:11;3.63;;;1.90;;
35518;SDS011;21627;48.216;16.482;2024-01-16T10:58:42;8.02;;;1.65;;
35518;SDS011;21627;48.216;16.482;2024-01-16T11:01:10;3.33;;;1.80;;
35518;SDS011;21627;48.216;16.482;2024-01-16T11:03:48;2.70;;;1.50;;
35518;SDS011;21627;48.216;16.482;2024-01-16T11:06:17;4.28;;;1.80;;
35518;SDS011;21627;48.216;16.482;2024-01-16T11:08:48;7.47;;;2.75;;
35518;SDS011;21627;48.216;16.482;2024-01-16T11:11:16;5.97;;;2.08;;
35518;SDS011;21627;48.216;16.482;2024-01-16T11:13:45;5.00;;;2.00;;
35518;SDS011;21627;48.216;16.482;2024-01-16T11:16:13;2.83;;;1.60;;
35518;SDS011;21627;48.216;16.482;2024-01-16T11:18:40;6.88;;;2.55;;
35518;SDS011;21627;48.216;16.482;2024-01-16T11:21:12;8.07;;;1.60;;
35518;SDS011;21627;48.216;16.482;2024-01-16T11:23:44;7.85;;;2.05;;
35518;SDS011;21627;48.216;16.482;2024-01-16T11:26:32;4.20;;;1.80;;
35518;SDS011;21627;48.216;16.482;2024-01-16T11:31:55;1.70;;;1.40;;
35518;SDS011;21627;48.216;16.482;2024-01-16T11:37:13;3.65;;;1.50;;
35518;SDS011;21627;48.216;16.482;2024-01-16T11:39:41;3.65;;;1.70;;
35518;SDS011;21627;48.216;16.482;2024-01-16T11:42:08;4.82;;;1.73;;
35518;SDS011;21627;48.216;16.482;2024-01-16T11:44:49;3.72;;;1.65;;
35518;SDS011;21627;48.216;16.482;2024-01-16T11:47:21;3.47;;;1.70;;
35518;SDS011;21627;48.216;16.482;2024-01-16T11:50:11;1.67;;;1.40;;
35518;SDS011;21627;48.216;16.482;2024-01-16T11:52:53;8.73;;;1.77;;
35518;SDS011;21627;48.216;16.482;2024-01-16T11:55:27;4.95;;;2.00;;
35518;SDS011;21627;48.216;16.482;2024-01-16T12:00:58;8.63;;;1.50;;
35518;SDS011;21627;48.216;16.482;2024-01-16T12:03:26;4.85;;;1.40;;
35518;SDS011;21627;48.216;16.482;2024-01-16T12:06:01;2.13;;;1.25;;
35518;SDS011;21627;48.216;16.482;2024-01-16T12:08:30;5.35;;;1.40;;
35518;SDS011;21627;48.216;16.482;2024-01-16T12:10:57;2.90;;;1.25;;
35518;SDS011;21627;48.216;16.482;2024-01-16T12:13:26;3.65;;;1.55;;
35518;SDS011;21627;48.216;16.482;2024-01-16T12:16:02;4.93;;;1.35;;
35518;SDS011;21627;48.216;16.482;2024-01-16T12:18:31;7.00;;;1.88;;
35518;SDS011;21627;48.216;16.482;2024-01-16T12:21:12;7.47;;;1.67;;
35518;SDS011;21627;48.216;16.482;2024-01-16T12:23:42;17.33;;;1.40;;
35518;SDS011;21627;48.216;16.482;2024-01-16T12:26:21;6.03;;;1.50;;
35518;SDS011;21627;48.216;16.482;2024-01-16T12:28:51;3.20;;;1.40;;
35518;SDS011;21627;48.216;16.482;2024-01-16T12:31:25;2.92;;;1.30;;
35518;SDS011;21627;48.216;16.482;2024-01-16T12:34:03;3.53;;;1.50;;
35518;SDS011;21627;48.216;16.482;2024-01-16T12:36:35;3.85;;;1.50;;
35518;SDS011;21627;48.216;16.482;2024-01-16T12:39:04;2.13;;;1.42;;
35518;SDS011;21627;48.216;16.482;2024-01-16T12:41:32;5.17;;;1.40;;
35518;SDS011;21627;48.216;16.482;2024-01-16T12:44:09;3.72;;;1.30;;
35518;SDS011;21627;48.216;16.482;2024-01-16T12:46:53;3.95;;;1.50;;
35518;SDS011;21627;48.216;16.482;2024-01-16T12:49:22;6.95;;;1.52;;
35518;SDS011;21627;48.216;16.482;2024-01-16T12:51:51;4.85;;;1.42;;
35518;SDS011;21627;48.216;16.482;2024-01-16T12:54:38;5.47;;;1.33;;
35518;SDS011;21627;48.216;16.482;2024-01-16T12:57:05;4.20;;;1.60;;
35518;SDS011;21627;48.216;16.482;2024-01-16T12:59:33;4.53;;;1.40;;
35518;SDS011;21627;48.216;16.482;2024-01-16T13:02:00;2.13;;;1.07;;
35518;SDS011;21627;48.216;16.482;2024-01-16T13:04:27;3.33;;;1.10;;
35518;SDS011;21627;48.216;16.482;2024-01-16T13:07:03;1.20;;;1.10;;
35518;SDS011;21627;48.216;16.482;2024-01-16T13:09:32;15.02;;;1.45;;
35518;SDS011;21627;48.216;16.482;2024-01-16T13:11:59;4.65;;;1.30;;
35518;SDS011;21627;48.216;16.482;2024-01-16T13:14:27;3.42;;;1.58;;
35518;SDS011;21627;48.216;16.482;2024-01-16T13:16:54;5.00;;;2.03;;
35518;SDS011;21627;48.216;16.482;2024-01-16T13:19:24;3.38;;;1.20;;
35518;SDS011;21627;48.216;16.482;2024-01-16T13:21:52;3.07;;;1.30;;
35518;SDS011;21627;48.216;16.482;2024-01-16T13:24:20;3.00;;;1.40;;
35518;SDS011;21627;48.216;16.482;2024-01-16T13:26:50;1.75;;;1.00;;
35518;SDS011;21627;48.216;16.482;2024-01-16T13:29:18;3.13;;;1.10;;
35518;SDS011;21627;48.216;16.482;2024-01-16T13:31:46;3.95;;;1.38;;
35518;SDS011;21627;48.216;16.482;2024-01-16T13:34:14;1.83;;;0.82;;
35518;SDS011;21627;48.216;16.482;2024-01-16T13:36:44;7.03;;;2.00;;
35518;SDS011;21627;48.216;16.482;2024-01-16T13:39:31;2.07;;;0.83;;
35518;SDS011;21627;48.216;16.482;2024-01-16T13:42:04;3.72;;;1.45;;
35518;SDS011;21627;48.216;16.482;2024-01-16T13:44:33;3.30;;;1.25;;
35518;SDS011;21627;48.216;16.482;2024-01-16T13:47:00;3.67;;;1.13;;
35518;SDS011;21627;48.216;16.482;2024-01-16T13:49:36;2.70;;;0.90;;
35518;SDS011;21627;48.216;16.482;2024-01-16T13:52:04;5.18;;;1.27;;
35518;SDS011;21627;48.216;16.482;2024-01-16T13:54:32;2.17;;;1.10;;
35518;SDS011;21627;48.216;16.482;2024-01-16T13:57:02;6.35;;;1.30;;
35518;SDS011;21627;48.216;16.482;2024-01-16T13:59:34;10.47;;;1.47;;
35518;SDS011;21627;48.216;16.482;2024-01-16T14:02:03;2.58;;;1.13;;
35518;SDS011;21627;48.216;16.482;2024-01-16T14:04:35;3.50;;;1.55;;
35518;SDS011;21627;48.216;16.482;2024-01-16T14:07:02;3.13;;;1.00;;
35518;SDS011;21627;48.216;16.482;2024-01-16T14:09:39;1.97;;;1.10;;
35518;SDS011;21627;48.216;16.482;2024-01-16T14:12:10;7.73;;;1.47;;
35518;SDS011;21627;48.216;16.482;2024-01-16T14:14:38;8.73;;;3.47;;
35518;SDS011;21627;48.216;16.482;2024-01-16T14:17:08;5.13;;;1.40;;
35518;SDS011;21627;48.216;16.482;2024-01-16T14:19:35;2.40;;;1.10;;
35518;SDS011;21627;48.216;16.482;2024-01-16T14:22:03;5.17;;;2.07;;
35518;SDS011;21627;48.216;16.482;2024-01-16T14:24:31;2.73;;;1.10;;
35518;SDS011;21627;48.216;16.482;2024-01-16T14:26:58;4.37;;;1.20;;
35518;SDS011;21627;48.216;16.482;2024-01-16T14:29:25;4.27;;;1.23;;
35518;SDS011;21627;48.216;16.482;2024-01-16T14:31:53;5.47;;;1.30;;
35518;SDS011;21627;48.216;16.482;2024-01-16T14:34:22;5.70;;;1.50;;
35518;SDS011;21627;48.216;16.482;2024-01-16T14:36:50;2.73;;;1.20;;
35518;SDS011;21627;48.216;16.482;2024-01-16T14:39:17;6.60;;;1.20;;
35518;SDS011;21627;48.216;16.482;2024-01-16T14:41:52;3.67;;;1.10;;
35518;SDS011;21627;48.216;16.482;2024-01-16T14:44:19;2.40;;;1.40;;
35518;SDS011;21627;48.216;16.482;2024-01-16T14:46:46;3.73;;;1.50;;
35518;SDS011;21627;48.216;16.482;2024-01-16T14:49:18;5.30;;;1.40;;
35518;SDS011;21627;48.216;16.482;2024-01-16T14:51:45;2.33;;;1.03;;
35518;SDS011;21627;48.216;16.482;2024-01-16T14:54:13;4.43;;;1.10;;
35518;SDS011;21627;48.216;16.482;2024-01-16T14:56:40;3.93;;;1.43;;
35518;SDS011;21627;48.216;16.482;2024-01-16T14:59:07;7.67;;;1.30;;
35518;SDS011;21627;48.216;16.482;2024-01-16T15:01:40;5.70;;;1.73;;
35518;SDS011;21627;48.216;16.482;2024-01-16T15:04:07;2.97;;;1.47;;
35518;SDS011;21627;48.216;16.482;2024-01-16T15:06:35;3.83;;;1.67;;
35518;SDS011;21627;48.216;16.482;2024-01-16T15:09:03;3.20;;;1.33;;
35518;SDS011;21627;48.216;16.482;2024-01-16T15:11:32;7.33;;;1.50;;
35518;SDS011;21627;48.216;16.482;2024-01-16T15:13:59;3.42;;;1.88;;
35518;SDS011;21627;48.216;16.482;2024-01-16T15:16:27;3.13;;;1.50;;
35518;SDS011;21627;48.216;16.482;2024-01-16T15:18:54;7.97;;;1.80;;
35518;SDS011;21627;48.216;16.482;2024-01-16T15:21:23;5.47;;;1.73;;
35518;SDS011;21627;48.216;16.482;2024-01-16T15:23:50;3.57;;;1.83;;